KPZQ METAR Reports


Rogers City, Presque Isle County Airport, MI, United States (KPZQ) 45-24-25N 083-48-46W
Aug 14, 2022 - 05:15 PM EDT / 2022.08.14 2115 UTC
Wind: from the ENE (060 degrees) at 8 MPH (7 KT):0
Visibility: 10 mile(s):0
Sky conditions: clear
Temperature: 70.2 F (21.2 C)
Dew Point: 55.9 F (13.3 C)
Relative Humidity: 60%
Pressure (altimeter): 30.06 in. Hg (1017 hPa)
ob: KPZQ 142115Z AUTO 06007KT 10SM CLR 21/13 A3006 RMK AO2 T02120133
cycle: 21

 

Rogers City METAR Meteogram

Weather Chart

Nearby METAR Reports

KPZQ - Rogers City, Michigan, USA
Distance from station: SSW 1mi, 2km
Updated: Sun, 14-Aug-2022 4:55pm EDT
Clear
Clear
 Wind from NE
Wind: NE 7 mph , 11 km/h
Temperature: 70°F , 21°C
Dew Point: 57°F , 14°C
Humidity: 64%
Barometer: 30.06 inHg , 1017.9 hPa
Clouds: Clear
Visibility: 10 miles , 16 km
2022/08/14 20:55 KPZQ 142055Z AUTO 05006KT 10SM CLR 21/14 A3006 RMK AO2 T02100143
KAPN - Alpena, Michigan, USA
Distance from station: SSE 27mi, 43km
Updated: Sun, 14-Aug-2022 4:54pm EDT
Clear
Clear
 Wind from ESE
Wind: ESE 8 mph , 13 km/h
Temperature: 75°F , 24°C
Dew Point: 54°F , 12°C
Humidity: 47%
Barometer: 30.05 inHg , 1017.6 hPa
Clouds: Clear
Visibility: 10 miles , 16 km
2022/08/14 20:54 KAPN 142054Z AUTO 11007KT 10SM CLR 24/12 A3005 RMK AO2 SLP175 T02390122 58001
 
KSLH - Cheboygan, Michigan, USA
Distance from station: WNW 38mi, 61km
Updated: Sun, 14-Aug-2022 4:55pm EDT
Clear
Clear
 Wind from NE
Wind: NE 10 mph , 17 km/h
Temperature: 72°F , 22°C
Dew Point: 52°F , 11°C
Humidity: 50%
Barometer: 30.04 inHg , 1017.3 hPa
Clouds: Clear
Visibility: 10 miles , 16 km
2022/08/14 20:55 KSLH 142055Z AUTO 05009KT 10SM CLR 22/11 A3004 RMK AO2
KDRM - Drummond Is, Michigan, USA
Distance from station: N 40mi, 65km
Updated: Sun, 14-Aug-2022 5:15pm EDT
Clear
Clear
 Wind from SSW
Wind: SSW 5 mph , 7 km/h
Temperature: 73°F , 23°C
Dew Point: 52°F , 11°C
Humidity: 47%
Barometer: 30.04 inHg , 1017.3 hPa
Clouds: Clear
Visibility: 10 miles , 16 km
2022/08/14 21:15 KDRM 142115Z AUTO 20004KT 10SM CLR 23/11 A3004 RMK AO2 T02260112
 
KPLN - Pellston, Michigan, USA
Distance from station: WNW 49mi, 79km
Updated: Sun, 14-Aug-2022 4:54pm EDT
Partly cloudy
Partly cloudy
 Wind from ESE
Wind: ESE 9 mph , 15 km/h
Temperature: 75°F , 24°C
Dew Point: 54°F , 12°C
Humidity: 47%
Barometer: 30.05 inHg , 1017.6 hPa
Clouds: Partly cloudy
Visibility: 10 miles , 16 km
Cloud details: Partly cloudy 4300 ft
2022/08/14 20:54 KPLN 142054Z AUTO 12008KT 10SM SCT043 24/12 A3005 RMK AO2 SLP176 T02440122 55004
KMCD - Mackinac Island, Michigan, USA
Distance from station: NW 50mi, 80km
Updated: Sun, 14-Aug-2022 5:15pm EDT
Clear
Clear
 Wind from E
Wind: E 6 mph , 9 km/h
Temperature: 70°F , 21°C
Dew Point: 50°F , 10°C
Humidity: 50%
Barometer: 30.06 inHg , 1017.9 hPa
Clouds: Clear
Visibility: 10 miles , 16 km
2022/08/14 21:15 KMCD 142115Z AUTO 10005KT 10SM CLR 21/10 A3006 RMK AO2 T02110099